createdAt,value
2022-10-21T00:00:13.004Z,12.30
2022-10-21T00:02:41.042Z,12.30
2022-10-21T00:05:09.496Z,12.40
2022-10-21T00:07:37.859Z,12.40
2022-10-21T00:10:07.276Z,12.40
2022-10-21T00:12:36.314Z,12.40
2022-10-21T00:15:06.831Z,12.40
2022-10-21T00:17:36.554Z,12.40
2022-10-21T00:20:05.566Z,12.40
2022-10-21T00:22:33.501Z,12.40
2022-10-21T00:25:01.268Z,12.50
2022-10-21T00:27:29.103Z,12.50
2022-10-21T00:29:56.895Z,12.50
2022-10-21T00:32:25.982Z,12.50
2022-10-21T00:34:53.725Z,12.50
2022-10-21T00:37:21.519Z,12.50
2022-10-21T00:39:49.287Z,12.50
2022-10-21T00:42:18.759Z,12.60
2022-10-21T00:45:17.005Z,12.60
2022-10-21T00:47:50.414Z,12.60
2022-10-21T00:50:27.323Z,12.60
2022-10-21T00:52:56.240Z,12.60
2022-10-21T00:55:24.888Z,12.70
2022-10-21T00:57:53.610Z,12.70
2022-10-21T01:00:21.526Z,12.70
2022-10-21T01:02:50.783Z,12.70
2022-10-21T01:05:19.564Z,12.60
2022-10-21T01:07:48.489Z,12.70
2022-10-21T01:10:16.827Z,12.70
2022-10-21T01:12:57.283Z,12.70
2022-10-21T01:15:30.317Z,12.70
2022-10-21T01:18:09.091Z,12.70
2022-10-21T01:21:01.624Z,12.70
2022-10-21T01:23:57.407Z,12.70
2022-10-21T01:26:57.363Z,12.70
2022-10-21T01:29:57.668Z,12.70
2022-10-21T01:32:34.381Z,12.70
2022-10-21T01:35:10.134Z,12.70
2022-10-21T01:37:56.694Z,12.70
2022-10-21T01:40:30.836Z,12.70
2022-10-21T01:43:01.965Z,12.70
2022-10-21T01:45:34.226Z,12.70
2022-10-21T01:48:08.436Z,12.70
2022-10-21T01:50:40.158Z,12.70
2022-10-21T01:53:10.853Z,12.70
2022-10-21T01:55:40.695Z,12.70
2022-10-21T01:58:11.616Z,12.60
2022-10-21T02:00:42.606Z,12.70
2022-10-21T02:03:15.039Z,12.70
2022-10-21T02:05:42.960Z,12.70
2022-10-21T02:08:10.815Z,12.70
2022-10-21T02:10:44.170Z,12.70
2022-10-21T02:13:14.648Z,12.70
2022-10-21T02:15:43.990Z,12.70
2022-10-21T02:18:20.988Z,12.60
2022-10-21T02:20:52.072Z,12.60
2022-10-21T02:23:27.065Z,12.60
2022-10-21T02:25:54.862Z,12.50
2022-10-21T02:28:22.814Z,12.50
2022-10-21T02:31:00.089Z,12.60
2022-10-21T02:33:39.791Z,12.50
2022-10-21T02:36:15.034Z,12.50
2022-10-21T02:38:46.143Z,12.60
2022-10-21T02:41:18.169Z,12.60
2022-10-21T02:43:50.395Z,12.70
2022-10-21T02:46:18.380Z,12.60
2022-10-21T02:48:49.186Z,12.60
2022-10-21T02:51:17.162Z,12.60
2022-10-21T02:53:45.135Z,12.70
2022-10-21T02:56:12.914Z,12.70
2022-10-21T02:58:40.694Z,12.70
2022-10-21T03:01:08.515Z,12.70
2022-10-21T03:03:36.374Z,12.70
2022-10-21T03:06:05.531Z,12.70
2022-10-21T03:08:33.430Z,12.70
2022-10-21T03:11:01.247Z,12.70
2022-10-21T03:13:28.991Z,12.70
2022-10-21T03:15:56.766Z,12.70
2022-10-21T03:18:24.527Z,12.70
2022-10-21T03:20:52.939Z,12.70
2022-10-21T03:23:22.549Z,12.80
2022-10-21T03:25:50.342Z,12.80
2022-10-21T03:28:18.097Z,12.80
2022-10-21T03:30:45.935Z,12.80
2022-10-21T03:33:13.708Z,12.80
2022-10-21T03:35:41.608Z,12.70
2022-10-21T03:38:09.403Z,12.70
2022-10-21T03:40:38.516Z,12.80
2022-10-21T03:43:06.273Z,12.80
2022-10-21T03:45:34.134Z,12.80
2022-10-21T03:48:01.887Z,12.70
2022-10-21T03:50:29.741Z,12.70
2022-10-21T03:52:59.172Z,12.60
2022-10-21T03:55:27.479Z,12.70
2022-10-21T03:57:56.627Z,12.70
2022-10-21T04:00:27.101Z,12.70
2022-10-21T04:02:57.243Z,12.70
2022-10-21T04:05:24.977Z,12.70
2022-10-21T04:07:53.224Z,12.70
2022-10-21T04:10:21.867Z,12.70
2022-10-21T04:12:49.745Z,12.70
2022-10-21T04:15:19.375Z,12.70
2022-10-21T04:17:47.782Z,12.70
2022-10-21T04:20:15.708Z,12.70
2022-10-21T04:22:43.493Z,12.60
2022-10-21T04:25:11.347Z,12.60
2022-10-21T04:27:39.570Z,12.50
2022-10-21T04:30:08.897Z,12.50
2022-10-21T04:32:38.372Z,12.40
2022-10-21T04:35:06.891Z,12.30
2022-10-21T04:37:35.049Z,12.30
2022-10-21T04:40:02.827Z,12.30
2022-10-21T04:42:30.617Z,12.30
2022-10-21T04:44:58.356Z,12.30
2022-10-21T04:47:26.146Z,12.20
2022-10-21T04:49:55.378Z,12.20
2022-10-21T04:52:23.151Z,12.10
2022-10-21T04:54:50.938Z,12.10
2022-10-21T04:57:20.341Z,12.10
2022-10-21T04:59:48.107Z,12.10
2022-10-21T05:02:15.975Z,12.00
2022-10-21T05:04:43.810Z,12.00
2022-10-21T05:07:12.982Z,12.00
2022-10-21T05:09:40.753Z,11.90
2022-10-21T05:12:08.706Z,12.00
2022-10-21T05:14:37.423Z,12.00
2022-10-21T05:17:05.314Z,12.00
2022-10-21T05:19:33.299Z,12.00
2022-10-21T05:22:01.096Z,12.00
2022-10-21T05:24:30.298Z,12.00
2022-10-21T05:26:58.087Z,12.00
2022-10-21T05:29:25.842Z,12.00
2022-10-21T05:31:53.598Z,12.00
2022-10-21T05:34:21.812Z,12.00
2022-10-21T05:36:49.850Z,12.00
2022-10-21T05:39:17.706Z,11.90
2022-10-21T05:41:48.068Z,12.00
2022-10-21T05:44:16.315Z,12.00
2022-10-21T05:46:44.083Z,12.00
2022-10-21T05:49:13.053Z,12.10
2022-10-21T05:51:40.814Z,12.10
2022-10-21T05:54:08.577Z,12.10
2022-10-21T05:56:36.514Z,12.20
2022-10-21T05:59:07.937Z,12.20
2022-10-21T06:01:37.931Z,12.20
2022-10-21T06:04:06.103Z,12.30
2022-10-21T06:06:33.863Z,12.30
2022-10-21T06:09:02.006Z,12.30
2022-10-21T06:11:29.950Z,12.30
2022-10-21T06:13:57.723Z,12.40
2022-10-21T06:16:26.858Z,12.40
2022-10-21T06:18:54.715Z,12.40
2022-10-21T06:21:22.669Z,12.50
2022-10-21T06:23:54.081Z,12.50
2022-10-21T06:26:22.108Z,12.50
2022-10-21T06:28:49.916Z,12.60
2022-10-21T06:31:21.521Z,12.70
2022-10-21T06:33:50.637Z,12.70
2022-10-21T06:36:18.434Z,12.70
2022-10-21T06:38:47.102Z,12.80
2022-10-21T06:41:15.679Z,12.90
2022-10-21T06:43:43.663Z,12.90
2022-10-21T06:46:13.937Z,13.00
2022-10-21T06:48:42.280Z,13.00
2022-10-21T06:51:14.899Z,13.10
2022-10-21T06:53:43.117Z,13.10
2022-10-21T06:56:13.109Z,13.10
2022-10-21T06:58:43.245Z,13.20
2022-10-21T07:01:27.277Z,13.20
2022-10-21T07:04:01.086Z,13.20
2022-10-21T07:06:30.391Z,13.30
2022-10-21T07:08:59.034Z,13.30
2022-10-21T07:11:27.618Z,13.30
2022-10-21T07:13:55.818Z,13.20
2022-10-21T07:16:26.132Z,13.30
2022-10-21T07:18:54.130Z,13.30
2022-10-21T07:21:24.021Z,13.30
2022-10-21T07:23:59.103Z,13.40
2022-10-21T07:26:28.842Z,13.40
2022-10-21T07:28:58.713Z,13.40
2022-10-21T07:31:27.634Z,13.60
2022-10-21T07:33:56.020Z,13.60
2022-10-21T07:36:26.172Z,13.70
2022-10-21T07:38:58.056Z,13.70
2022-10-21T07:41:29.323Z,13.80
2022-10-21T07:43:58.094Z,13.90
2022-10-21T07:46:26.275Z,13.90
2022-10-21T07:48:54.364Z,14.00
2022-10-21T07:51:28.482Z,14.00
2022-10-21T07:53:59.159Z,14.00
2022-10-21T07:56:29.122Z,14.20
2022-10-21T07:58:56.994Z,14.20
2022-10-21T08:01:24.974Z,14.30
2022-10-21T08:03:54.838Z,14.30
2022-10-21T08:06:23.802Z,14.30
2022-10-21T08:08:52.042Z,14.50
2022-10-21T08:11:25.039Z,14.50
2022-10-21T08:13:53.300Z,14.60
2022-10-21T08:16:21.123Z,14.70
2022-10-21T08:18:49.552Z,14.70
2022-10-21T08:21:17.414Z,14.90
2022-10-21T08:23:45.618Z,15.00
2022-10-21T08:26:15.147Z,15.00
2022-10-21T08:28:44.941Z,15.10
2022-10-21T08:31:14.147Z,15.10
2022-10-21T08:33:42.592Z,15.20
2022-10-21T08:36:13.076Z,15.30
2022-10-21T08:38:40.959Z,15.30
2022-10-21T08:41:19.659Z,15.30
2022-10-21T08:43:48.872Z,15.30
2022-10-21T08:46:22.201Z,15.30
2022-10-21T08:48:54.678Z,15.50
2022-10-21T08:51:27.971Z,15.50
2022-10-21T08:54:00.961Z,15.50
2022-10-21T08:56:32.104Z,15.50
2022-10-21T08:59:01.206Z,15.50
2022-10-21T09:01:39.250Z,15.50
2022-10-21T09:04:14.189Z,15.50
2022-10-21T09:06:50.364Z,15.50
2022-10-21T09:09:23.800Z,15.50
2022-10-21T09:12:03.138Z,15.50
2022-10-21T09:14:59.876Z,15.30
2022-10-21T09:17:42.041Z,15.30
2022-10-21T09:20:23.098Z,15.20
2022-10-21T09:23:00.381Z,15.20
2022-10-21T09:25:34.445Z,15.30
2022-10-21T09:28:12.016Z,15.20
2022-10-21T09:30:42.037Z,15.20
2022-10-21T09:33:17.012Z,15.30
2022-10-21T09:35:51.552Z,15.30
2022-10-21T09:38:26.073Z,15.30
2022-10-21T09:41:01.309Z,15.20
2022-10-21T09:43:29.164Z,15.30
2022-10-21T09:45:59.127Z,15.30
2022-10-21T09:48:41.723Z,15.10
2022-10-21T09:51:23.744Z,15.10
2022-10-21T09:53:54.514Z,15.00
2022-10-21T09:56:25.023Z,15.00
2022-10-21T09:59:07.179Z,14.90
2022-10-21T10:01:37.770Z,14.80
2022-10-21T10:04:12.533Z,14.70
2022-10-21T10:06:42.237Z,14.50
2022-10-21T10:09:16.406Z,14.40
2022-10-21T10:11:51.639Z,14.40
2022-10-21T10:14:26.148Z,14.30
2022-10-21T10:16:55.844Z,14.20
2022-10-21T10:19:25.723Z,14.20
2022-10-21T10:22:12.793Z,14.30
2022-10-21T10:24:41.732Z,14.30
2022-10-21T10:27:15.347Z,14.30
2022-10-21T10:29:49.393Z,14.20
2022-10-21T10:32:18.633Z,14.30
2022-10-21T10:34:53.537Z,14.20
2022-10-21T10:37:23.931Z,14.20
2022-10-21T10:39:55.575Z,14.20
2022-10-21T10:42:26.995Z,14.00
2022-10-21T10:44:56.611Z,14.10
2022-10-21T10:47:28.321Z,14.10
2022-10-21T10:49:56.227Z,14.10
2022-10-21T10:52:26.643Z,14.20
2022-10-21T10:55:18.305Z,14.20
2022-10-21T10:58:05.904Z,14.10
2022-10-21T11:00:44.554Z,14.30
2022-10-21T11:03:17.939Z,14.30
2022-10-21T11:05:47.867Z,14.30
2022-10-21T11:08:17.873Z,14.30
2022-10-21T11:10:48.906Z,14.40
2022-10-21T11:13:19.063Z,14.40
2022-10-21T11:16:11.345Z,14.30
2022-10-21T11:18:49.351Z,14.30
2022-10-21T11:21:43.466Z,14.30
2022-10-21T11:24:51.274Z,14.30
2022-10-21T11:27:34.450Z,14.30
2022-10-21T11:30:10.890Z,14.30
2022-10-21T11:32:56.535Z,14.30
2022-10-21T11:35:43.380Z,14.40
2022-10-21T11:38:32.427Z,14.50
2022-10-21T11:41:08.387Z,14.50
2022-10-21T11:43:43.314Z,14.50
2022-10-21T11:46:19.383Z,14.50
2022-10-21T11:49:06.719Z,14.50
2022-10-21T11:51:44.025Z,14.50
2022-10-21T11:54:37.132Z,14.60
2022-10-21T11:57:10.847Z,14.80
2022-10-21T11:59:56.642Z,14.80
2022-10-21T12:02:36.181Z,14.90
2022-10-21T12:05:09.191Z,15.00
2022-10-21T12:08:08.028Z,15.00
2022-10-21T12:10:38.906Z,15.10
2022-10-21T12:13:14.456Z,15.30
2022-10-21T12:15:46.693Z,15.30
2022-10-21T12:18:18.259Z,15.40
2022-10-21T12:20:49.710Z,15.50
2022-10-21T12:23:21.594Z,15.60
2022-10-21T12:26:00.195Z,15.70
2022-10-21T12:28:32.887Z,15.70
2022-10-21T12:31:06.033Z,15.60
2022-10-21T12:33:39.622Z,15.70
2022-10-21T12:36:38.018Z,15.70
2022-10-21T12:39:12.565Z,15.80
2022-10-21T12:41:41.363Z,15.70
2022-10-21T12:44:30.295Z,15.80
2022-10-21T12:47:03.616Z,15.70
2022-10-21T12:49:33.549Z,15.70
2022-10-21T12:52:09.487Z,15.80
2022-10-21T12:54:44.127Z,15.80
2022-10-21T12:57:23.373Z,15.80
2022-10-21T12:59:52.231Z,15.70
2022-10-21T13:02:23.832Z,15.80
2022-10-21T13:04:53.815Z,15.80
2022-10-21T13:07:38.274Z,15.80
2022-10-21T13:10:27.592Z,15.80
2022-10-21T13:13:32.030Z,15.90
2022-10-21T13:16:01.663Z,15.90
2022-10-21T13:19:01.081Z,15.90
2022-10-21T13:21:40.878Z,15.90
2022-10-21T13:24:22.415Z,15.90
2022-10-21T13:26:54.301Z,15.90
2022-10-21T13:29:42.535Z,15.90
2022-10-21T13:32:25.561Z,15.80
2022-10-21T13:35:02.654Z,15.80
2022-10-21T13:37:34.577Z,15.70
2022-10-21T13:40:05.333Z,15.70
2022-10-21T13:42:39.581Z,15.70
2022-10-21T13:45:24.040Z,15.60
2022-10-21T13:48:05.430Z,15.50
2022-10-21T13:50:38.497Z,15.50
2022-10-21T13:53:29.460Z,15.40
2022-10-21T13:55:59.699Z,15.30
2022-10-21T13:58:31.011Z,15.30
2022-10-21T14:01:07.434Z,15.20
2022-10-21T14:03:36.200Z,15.10
2022-10-21T14:06:05.311Z,15.10
2022-10-21T14:08:38.478Z,15.00
2022-10-21T14:11:13.200Z,15.10
2022-10-21T14:13:42.651Z,15.10
2022-10-21T14:16:11.118Z,15.00
2022-10-21T14:18:42.820Z,15.00
2022-10-21T14:21:18.953Z,15.00
2022-10-21T14:23:47.470Z,15.00
2022-10-21T14:26:15.531Z,15.00
2022-10-21T14:28:45.912Z,15.00
2022-10-21T14:31:14.910Z,15.00
2022-10-21T14:33:45.768Z,14.90
2022-10-21T14:36:19.796Z,14.90
2022-10-21T14:38:55.630Z,14.90
2022-10-21T14:41:27.331Z,14.90
2022-10-21T14:43:58.953Z,14.90
2022-10-21T14:46:26.709Z,14.80
2022-10-21T14:48:59.482Z,14.80
2022-10-21T14:51:28.699Z,14.80
2022-10-21T14:54:00.402Z,14.70
2022-10-21T14:56:33.812Z,14.70
2022-10-21T14:59:16.662Z,14.70
2022-10-21T15:01:45.035Z,14.70
2022-10-21T15:04:41.500Z,14.70
2022-10-21T15:07:18.280Z,14.70
2022-10-21T15:10:15.943Z,14.60
2022-10-21T15:12:45.075Z,14.60
2022-10-21T15:15:53.597Z,14.60
2022-10-21T15:18:24.238Z,14.60
2022-10-21T15:20:57.556Z,14.60
2022-10-21T15:23:28.459Z,14.60
2022-10-21T15:26:00.213Z,14.60
2022-10-21T15:28:31.756Z,14.60
2022-10-21T15:31:02.294Z,14.50
2022-10-21T15:33:31.311Z,14.50
2022-10-21T15:36:03.196Z,14.50
2022-10-21T15:38:31.076Z,14.50
2022-10-21T15:40:58.906Z,14.50
2022-10-21T15:43:26.767Z,14.50
2022-10-21T15:45:54.903Z,14.50
2022-10-21T15:48:24.103Z,14.50
2022-10-21T15:50:51.913Z,14.50
2022-10-21T15:53:19.652Z,14.40
2022-10-21T15:55:47.429Z,14.40
2022-10-21T15:58:15.212Z,14.40
2022-10-21T16:00:43.045Z,14.40
2022-10-21T16:03:10.807Z,14.40
2022-10-21T16:05:40.682Z,14.40
2022-10-21T16:08:11.430Z,14.40
2022-10-21T16:10:42.326Z,14.40
2022-10-21T16:13:10.107Z,14.30
2022-10-21T16:15:37.912Z,14.30
2022-10-21T16:18:12.183Z,14.30
2022-10-21T16:20:42.793Z,14.20
2022-10-21T16:23:11.625Z,14.10
2022-10-21T16:25:39.402Z,14.10
2022-10-21T16:28:07.303Z,14.10
2022-10-21T16:30:36.716Z,14.10
2022-10-21T16:33:05.014Z,14.10
2022-10-21T16:35:32.848Z,14.10
2022-10-21T16:38:02.064Z,14.10
2022-10-21T16:40:32.855Z,14.10
2022-10-21T16:43:00.687Z,14.10
2022-10-21T16:45:30.846Z,14.00
2022-10-21T16:48:00.314Z,14.00
2022-10-21T16:50:36.819Z,14.00
2022-10-21T16:53:06.389Z,14.00
2022-10-21T16:55:34.195Z,14.00
2022-10-21T16:58:02.018Z,14.00
2022-10-21T17:00:29.851Z,14.00
2022-10-21T17:02:58.850Z,14.00
2022-10-21T17:05:27.058Z,14.10
2022-10-21T17:07:55.315Z,14.10
2022-10-21T17:10:24.432Z,14.10
2022-10-21T17:12:58.526Z,14.10
2022-10-21T17:15:27.052Z,14.10
2022-10-21T17:17:55.147Z,14.10
2022-10-21T17:20:22.929Z,14.10
2022-10-21T17:22:50.692Z,14.10
2022-10-21T17:25:18.450Z,14.10
2022-10-21T17:27:47.629Z,14.10
2022-10-21T17:30:15.501Z,14.10
2022-10-21T17:32:43.246Z,14.10
2022-10-21T17:35:18.251Z,14.10
2022-10-21T17:37:46.770Z,14.10
2022-10-21T17:40:20.715Z,14.10
2022-10-21T17:42:50.503Z,14.10
2022-10-21T17:45:19.696Z,14.10
2022-10-21T17:47:47.541Z,14.10
2022-10-21T17:50:18.336Z,14.10
2022-10-21T17:52:46.106Z,14.10
2022-10-21T17:55:13.893Z,14.10
2022-10-21T17:57:41.663Z,14.10
2022-10-21T18:00:11.752Z,14.10
2022-10-21T18:02:39.897Z,14.10
2022-10-21T18:05:09.726Z,14.10
2022-10-21T18:07:37.893Z,14.10
2022-10-21T18:10:07.210Z,14.00
2022-10-21T18:12:35.382Z,14.00
2022-10-21T18:15:03.215Z,14.00
2022-10-21T18:17:33.492Z,14.00
2022-10-21T18:20:01.299Z,14.00
2022-10-21T18:22:29.098Z,14.00
2022-10-21T18:24:56.886Z,14.00
2022-10-21T18:27:24.766Z,14.00
2022-10-21T18:29:52.548Z,14.10
2022-10-21T18:32:20.659Z,14.10
2022-10-21T18:34:50.858Z,14.10
2022-10-21T18:37:18.704Z,14.00
2022-10-21T18:39:46.519Z,14.00
2022-10-21T18:42:14.272Z,14.00
2022-10-21T18:44:42.316Z,14.00
2022-10-21T18:47:11.014Z,13.90
2022-10-21T18:49:38.792Z,13.90
2022-10-21T18:52:08.020Z,13.90
2022-10-21T18:54:36.095Z,13.90
2022-10-21T18:57:06.409Z,13.90
2022-10-21T18:59:34.332Z,13.90
2022-10-21T19:02:03.439Z,13.90
2022-10-21T19:04:31.300Z,14.00
2022-10-21T19:06:59.085Z,14.00
2022-10-21T19:09:28.726Z,14.00
2022-10-21T19:11:59.371Z,14.00
2022-10-21T19:14:27.138Z,14.00
2022-10-21T19:16:55.117Z,14.00
2022-10-21T19:19:22.905Z,14.00
2022-10-21T19:21:50.671Z,14.00
2022-10-21T19:24:18.586Z,14.00
2022-10-21T19:26:53.007Z,14.00
2022-10-21T19:29:21.858Z,14.00
2022-10-21T19:31:50.043Z,14.10
2022-10-21T19:34:20.011Z,14.00
2022-10-21T19:36:48.129Z,14.10
2022-10-21T19:39:17.517Z,14.10
2022-10-21T19:41:46.863Z,14.10
2022-10-21T19:44:14.724Z,14.10
2022-10-21T19:46:42.751Z,14.10
2022-10-21T19:49:12.024Z,14.10
2022-10-21T19:51:40.310Z,14.10
2022-10-21T19:54:10.126Z,14.10
2022-10-21T19:56:37.908Z,14.10
2022-10-21T19:59:07.813Z,14.10
2022-10-21T20:01:36.703Z,14.10
2022-10-21T20:04:06.371Z,14.10
2022-10-21T20:06:35.667Z,14.10
2022-10-21T20:09:06.761Z,14.10
2022-10-21T20:11:34.619Z,14.10
2022-10-21T20:14:04.566Z,14.10
2022-10-21T20:16:36.858Z,14.20
2022-10-21T20:19:06.892Z,14.20
2022-10-21T20:21:36.345Z,14.10
2022-10-21T20:24:04.459Z,14.10
2022-10-21T20:26:32.294Z,14.10
2022-10-21T20:29:01.904Z,14.10
2022-10-21T20:31:29.922Z,14.10
2022-10-21T20:33:59.100Z,14.10
2022-10-21T20:36:29.088Z,14.10
2022-10-21T20:38:58.694Z,14.10
2022-10-21T20:41:30.462Z,14.10
2022-10-21T20:43:58.226Z,14.00
2022-10-21T20:46:26.918Z,14.00
2022-10-21T20:48:55.793Z,14.00
2022-10-21T20:51:27.073Z,14.00
2022-10-21T20:53:56.979Z,14.00
2022-10-21T20:56:27.586Z,14.00
2022-10-21T20:58:55.755Z,14.10
2022-10-21T21:01:26.915Z,14.00
2022-10-21T21:03:56.976Z,14.00
2022-10-21T21:06:26.576Z,14.00
2022-10-21T21:09:15.177Z,14.00
2022-10-21T21:11:43.551Z,14.00
2022-10-21T21:14:11.400Z,14.00
2022-10-21T21:16:39.379Z,14.00
2022-10-21T21:19:08.819Z,14.00
2022-10-21T21:21:38.118Z,14.00
2022-10-21T21:24:06.282Z,13.90
2022-10-21T21:26:36.148Z,13.90
2022-10-21T21:29:06.045Z,13.90
2022-10-21T21:31:35.783Z,13.90
2022-10-21T21:34:03.637Z,13.90
2022-10-21T21:36:31.427Z,13.90
2022-10-21T21:39:00.694Z,13.80
2022-10-21T21:41:28.534Z,13.80
2022-10-21T21:43:58.213Z,13.80
2022-10-21T21:46:26.796Z,13.80
2022-10-21T21:48:59.566Z,13.80
2022-10-21T21:51:31.299Z,13.80
2022-10-21T21:54:00.940Z,13.80
2022-10-21T21:56:28.967Z,13.70
2022-10-21T21:58:58.092Z,13.70
2022-10-21T22:01:27.898Z,13.80
2022-10-21T22:03:56.164Z,13.80
2022-10-21T22:09:01.081Z,13.70
2022-10-21T22:11:32.979Z,13.70
2022-10-21T22:14:01.113Z,13.70
2022-10-21T22:16:30.803Z,13.70
2022-10-21T22:19:00.217Z,13.70
2022-10-21T22:21:28.561Z,13.80
2022-10-21T22:23:56.360Z,13.70
2022-10-21T22:26:27.157Z,13.70
2022-10-21T22:28:55.250Z,13.70
2022-10-21T22:31:28.907Z,13.70
2022-10-21T22:33:59.242Z,13.70
2022-10-21T22:36:27.121Z,13.60
2022-10-21T22:38:54.859Z,13.70
2022-10-21T22:41:22.789Z,13.60
2022-10-21T22:43:51.904Z,13.60
2022-10-21T22:46:35.260Z,13.60
2022-10-21T22:49:04.489Z,13.60
2022-10-21T22:51:32.775Z,13.60
2022-10-21T22:54:01.150Z,13.60
2022-10-21T22:56:29.419Z,13.60
2022-10-21T22:58:58.704Z,13.60
2022-10-21T23:01:29.959Z,13.60
2022-10-21T23:03:58.225Z,13.50
2022-10-21T23:06:26.028Z,13.50
2022-10-21T23:08:53.878Z,13.50
2022-10-21T23:11:21.835Z,13.50
2022-10-21T23:14:02.064Z,13.50
2022-10-21T23:16:33.669Z,13.60
2022-10-21T23:19:01.517Z,13.60
2022-10-21T23:21:29.389Z,13.60
2022-10-21T23:23:57.441Z,13.50
2022-10-21T23:26:25.461Z,13.50
2022-10-21T23:28:53.223Z,13.50
2022-10-21T23:31:21.258Z,13.60
2022-10-21T23:33:50.416Z,13.60
2022-10-21T23:36:18.209Z,13.60
2022-10-21T23:38:46.652Z,13.60
2022-10-21T23:41:14.508Z,13.60
2022-10-21T23:43:42.387Z,13.60
2022-10-21T23:46:10.216Z,13.60
2022-10-21T23:48:38.080Z,13.60
2022-10-21T23:51:07.282Z,13.60
2022-10-21T23:53:35.109Z,13.60
2022-10-21T23:56:02.901Z,13.60
2022-10-21T23:58:30.708Z,13.60
